createdAt,value
2023-04-14T00:01:19.873Z,7.50
2023-04-14T00:08:02.248Z,7.50
2023-04-14T00:14:44.614Z,7.40
2023-04-14T00:21:27.433Z,7.10
2023-04-14T00:28:09.744Z,7.10
2023-04-14T00:34:52.000Z,7.00
2023-04-14T00:41:35.456Z,6.90
2023-04-14T00:48:18.966Z,6.80
2023-04-14T00:55:05.043Z,6.80
2023-04-14T01:01:47.412Z,6.80
2023-04-14T01:08:29.965Z,6.80
2023-04-14T01:15:26.726Z,6.70
2023-04-14T01:22:12.035Z,6.60
2023-04-14T01:29:12.900Z,6.50
2023-04-14T01:35:58.810Z,6.30
2023-04-14T01:42:47.655Z,6.30
2023-04-14T01:49:33.580Z,6.20
2023-04-14T01:56:17.903Z,6.10
2023-04-14T02:03:01.281Z,5.90
2023-04-14T02:09:47.199Z,5.80
2023-04-14T02:16:30.210Z,5.60
2023-04-14T02:23:12.651Z,5.50
2023-04-14T02:29:56.256Z,5.50
2023-04-14T02:36:58.229Z,5.50
2023-04-14T02:44:07.308Z,5.50
2023-04-14T02:50:54.412Z,5.80
2023-04-14T02:57:40.750Z,5.90
2023-04-14T03:04:25.592Z,5.70
2023-04-14T03:11:09.162Z,5.70
2023-04-14T03:17:55.909Z,5.70
2023-04-14T03:33:12.437Z,5.50
2023-04-14T03:40:01.657Z,5.40
2023-04-14T03:46:49.184Z,5.40
2023-04-14T03:53:34.784Z,5.50
2023-04-14T04:00:21.266Z,5.50
2023-04-14T04:07:07.764Z,5.50
2023-04-14T04:13:51.639Z,5.50
2023-04-14T04:20:38.678Z,5.40
2023-04-14T04:27:28.224Z,5.20
2023-04-14T04:34:19.613Z,5.20
2023-04-14T04:41:02.424Z,5.00
2023-04-14T04:47:46.087Z,5.00
2023-04-14T04:54:28.714Z,5.00
2023-04-14T05:01:11.414Z,4.90
2023-04-14T05:07:53.980Z,5.00
2023-04-14T05:14:36.459Z,5.10
2023-04-14T05:21:19.295Z,5.10
2023-04-14T05:28:01.661Z,5.00
2023-04-14T05:34:44.005Z,4.90
2023-04-14T05:41:26.568Z,5.20
2023-04-14T05:48:09.303Z,5.50
2023-04-14T05:54:51.666Z,5.80
2023-04-14T06:01:34.174Z,7.30
2023-04-14T06:08:16.516Z,9.90
2023-04-14T06:14:58.900Z,13.20
2023-04-14T06:21:41.619Z,15.80
2023-04-14T06:28:25.618Z,17.30
2023-04-14T06:35:12.091Z,17.10
2023-04-14T06:41:58.771Z,17.50
2023-04-14T06:48:41.101Z,17.20
2023-04-14T06:55:23.424Z,18.40
2023-04-14T07:02:06.371Z,20.40
2023-04-14T07:08:48.844Z,21.50
2023-04-14T07:15:31.160Z,22.60
2023-04-14T07:22:13.545Z,23.70
2023-04-14T07:28:56.870Z,23.80
2023-04-14T07:35:48.071Z,24.90
2023-04-14T07:42:37.181Z,23.30
2023-04-14T07:49:19.559Z,23.30
2023-04-14T07:56:01.974Z,24.40
2023-04-14T08:02:45.015Z,25.40
2023-04-14T08:09:27.596Z,25.10
2023-04-14T08:16:10.333Z,26.20
2023-04-14T08:22:52.686Z,24.50
2023-04-14T08:29:35.000Z,23.40
2023-04-14T08:36:17.532Z,21.90
2023-04-14T08:42:59.882Z,22.70
2023-04-14T08:49:48.205Z,23.70
2023-04-14T08:56:41.793Z,22.50
2023-04-14T09:03:28.429Z,24.00
2023-04-14T09:10:12.016Z,24.50
2023-04-14T09:16:56.182Z,23.90
2023-04-14T09:23:41.632Z,23.90
2023-04-14T09:30:24.258Z,22.50
2023-04-14T09:37:08.245Z,25.90
2023-04-14T09:43:52.448Z,24.70
2023-04-14T09:51:01.671Z,22.80
2023-04-14T09:57:47.811Z,25.30
2023-04-14T10:04:30.739Z,26.10
2023-04-14T10:11:30.033Z,25.40
2023-04-14T10:18:12.540Z,25.20
2023-04-14T10:24:56.190Z,25.20
2023-04-14T10:31:42.724Z,23.90
2023-04-14T10:38:46.579Z,20.60
2023-04-14T10:45:28.900Z,19.90
2023-04-14T10:52:17.283Z,21.70
2023-04-14T10:58:59.854Z,19.50
2023-04-14T11:05:44.258Z,17.80
2023-04-14T11:12:30.002Z,16.50
2023-04-14T11:19:15.443Z,16.40
2023-04-14T11:25:58.632Z,16.50
2023-04-14T11:32:57.158Z,16.70
2023-04-14T11:39:39.832Z,17.10
2023-04-14T11:46:22.394Z,17.20
2023-04-14T11:53:17.336Z,17.10
2023-04-14T11:59:59.796Z,17.00
2023-04-14T12:06:42.154Z,16.20
2023-04-14T12:13:24.928Z,17.20
2023-04-14T12:20:15.617Z,17.60
2023-04-14T12:26:58.073Z,16.60
2023-04-14T12:33:40.735Z,16.20
2023-04-14T12:40:38.621Z,16.30
2023-04-14T12:47:28.838Z,16.10
2023-04-14T12:54:12.234Z,16.10
2023-04-14T13:00:54.611Z,15.90
2023-04-14T13:07:36.988Z,15.60
2023-04-14T13:14:19.293Z,15.70
2023-04-14T13:21:03.920Z,15.40
2023-04-14T13:27:46.491Z,15.10
2023-04-14T13:34:28.890Z,16.20
2023-04-14T13:41:11.311Z,16.00
2023-04-14T13:47:53.753Z,15.70
2023-04-14T13:54:36.259Z,15.70
2023-04-14T14:01:19.384Z,15.80
2023-04-14T14:08:02.132Z,15.80
2023-04-14T14:14:44.450Z,15.70
2023-04-14T14:21:26.961Z,15.90
2023-04-14T14:28:09.301Z,15.40
2023-04-14T14:34:51.940Z,15.60
2023-04-14T14:41:34.422Z,15.70
2023-04-14T14:48:17.000Z,15.80
2023-04-14T14:54:59.274Z,15.60
2023-04-14T15:01:41.643Z,15.70
2023-04-14T15:08:24.079Z,15.70
2023-04-14T15:15:07.329Z,15.80
2023-04-14T15:21:51.205Z,16.00
2023-04-14T15:28:33.688Z,16.40
2023-04-14T15:35:16.321Z,16.00
2023-04-14T15:41:58.788Z,15.70
2023-04-14T15:48:41.203Z,15.80
2023-04-14T15:55:23.579Z,16.10
2023-04-14T16:02:06.117Z,15.80
2023-04-14T16:08:48.480Z,15.60
2023-04-14T16:15:31.221Z,15.50
2023-04-14T16:22:13.585Z,15.60
2023-04-14T16:28:55.842Z,15.60
2023-04-14T16:35:38.228Z,15.70
2023-04-14T16:42:23.967Z,15.80
2023-04-14T16:49:07.648Z,15.60
2023-04-14T16:55:50.243Z,15.40
2023-04-14T17:02:32.693Z,15.30
2023-04-14T17:09:17.403Z,15.20
2023-04-14T17:16:08.256Z,15.00
2023-04-14T17:22:55.345Z,14.70
2023-04-14T17:29:37.713Z,14.40
2023-04-14T17:36:20.196Z,14.30
2023-04-14T17:43:04.307Z,14.10
2023-04-14T17:49:46.581Z,14.00
2023-04-14T17:56:33.729Z,13.70
2023-04-14T18:03:16.441Z,13.50
2023-04-14T18:09:58.879Z,13.30
2023-04-14T18:16:41.253Z,13.00
2023-04-14T18:23:23.613Z,12.70
2023-04-14T18:30:07.296Z,12.20
2023-04-14T18:36:49.717Z,12.20
2023-04-14T18:43:32.653Z,12.00
2023-04-14T18:50:15.232Z,11.80
2023-04-14T18:56:57.893Z,11.70
2023-04-14T19:03:40.376Z,11.50
2023-04-14T19:10:23.219Z,11.20
2023-04-14T19:17:05.506Z,10.80
2023-04-14T19:23:48.717Z,10.20
2023-04-14T19:30:31.140Z,10.10
2023-04-14T19:37:13.480Z,9.90
2023-04-14T19:43:55.912Z,9.70
2023-04-14T19:50:38.448Z,9.70
2023-04-14T19:57:21.795Z,9.70
2023-04-14T20:04:06.838Z,9.70
2023-04-14T20:10:55.203Z,9.40
2023-04-14T20:17:37.658Z,8.90
2023-04-14T20:24:20.217Z,8.60
2023-04-14T20:31:03.226Z,8.60
2023-04-14T20:37:46.190Z,8.70
2023-04-14T20:44:28.468Z,8.70
2023-04-14T20:51:11.157Z,8.70
2023-04-14T20:57:53.581Z,8.50
2023-04-14T21:04:35.922Z,8.50
2023-04-14T21:11:18.862Z,8.40
2023-04-14T21:18:01.482Z,8.20
2023-04-14T21:24:48.370Z,8.00
2023-04-14T21:31:30.841Z,7.90
2023-04-14T21:38:13.271Z,7.90
2023-04-14T21:44:55.573Z,7.80
2023-04-14T21:51:37.892Z,7.80
2023-04-14T21:58:20.193Z,7.80
2023-04-14T22:05:02.574Z,7.60
2023-04-14T22:11:44.936Z,7.60
2023-04-14T22:18:31.039Z,7.30
2023-04-14T22:25:13.367Z,6.80
2023-04-14T22:31:55.620Z,6.60
2023-04-14T22:38:37.934Z,6.60
2023-04-14T22:45:20.401Z,6.60
2023-04-14T22:52:02.785Z,6.70
2023-04-14T22:58:45.103Z,6.70
2023-04-14T23:05:27.846Z,6.70
2023-04-14T23:12:10.362Z,6.70
2023-04-14T23:18:53.016Z,6.60
2023-04-14T23:25:35.317Z,6.40
2023-04-14T23:32:17.610Z,6.00
2023-04-14T23:39:00.034Z,5.90
2023-04-14T23:45:42.556Z,5.80
2023-04-14T23:52:24.834Z,6.00
2023-04-14T23:59:07.128Z,6.10
